Main page
METAR-TAF:

METAR-TAF

Airports :

Limoges – Bellegarde Airport

Limoges, France

latitude: 45-52N, longitude: 001-11E, elevation: 396 m

Current weather observation

The report was made 21 minutes ago, at 06:00 UTC
Wind 10 kt from the Northeast
Temperature 8°C
Humidity 87%
Pressure 1030 hPa
Visibility: 7000 m

METAR: LFBL 230600Z AUTO 04010KT 7000 NSC 08/06 Q1030 NOSIG

Time: 08:21 (06:21 UTC)

Forecast

The report was made 1 hour and 21 minutes ago, at 05:00 UTC
Forecast valid from 23 at 06 UTC to 24 at 06 UTC
Wind 10 kt from the North/Northeast
Visibility: 8000 m
Becoming
from 23 at 06 UTC to 23 at 08 UTC
Visibility 10 km or more
no clouds below 1500 m and no cumulonimbus

TAF: LFBL 230500Z 2306/2406 03010KT 8000 NSC BECMG 2306/2308 CAVOK

Weather observations and forecasts of more than 4000 airports (METAR and TAF reports).

The available stations are represented by yellow and red dots on the map.

Hover mouse over dot to see the name of the station.

Then click to see weather observations and forecasts.

To change the map : click on the green buttons with a black cross to zoom in, on the green button with a dash to zoom out, or on the green arrows for adjacent maps.


METAR-TAF: